WSSLWMKN

Guest
Details From WSSL - Seletar
To WMKN - Kuala Terengganu Sultan Mahmud
Flight Number -
Tags generated
Created
Modified
Stats Distance 247 nm / 458 km
Max Altitude 30,100 ft / 9,174 m
Waypoints 4
Social Downloads 0
Likes 0
Share VATSIM

Download

Looking for another format? Having issues loading an existing format? Contact us
Advertisement - Login to hide

Notes

Basic altitude profile: - Ascent Rate: 2500ft/min - Ascent Speed: 250kts - Cruise Altitude: 35000ft - Cruise Speed: 420kts - Descent Rate: 1500ft/min - Descent Speed: 250kts

Route

WSSL PADLI Y332 TAXUL WMKN

ID Type Via Altitude Latitude Longitude Leg Dist Tot Dist Heading (true) Name
O WSSL APT - 0 ft / 0 m 1.41643˚ 103.86730˚ - 0 nm - Seletar
PADLI FIX - 30,100 ft / 9,174 m 3.15500˚ 103.52583˚ 106 nm 106 nm 349° / 349° -
TAXUL FIX Y332 (AWY-HI) 23,500 ft / 7,163 m 3.84333˚ 103.67667˚ 42 nm 148 nm 12° / 12° -
O WMKN APT - 0 ft / 0 m 5.38264˚ 103.10336˚ 98 nm 247 nm 340° / 340° Kuala Terengganu Sultan Mahmud

Altitude Profile

Advertisement - Login to hide

Weather


0- 5 10 15 20 25 30 35+ Temperature / ° C

Clouds and Precipitation
Forecast for 2017-12-13 18:00 UTC. Updated 2 hours ago

Ground ~20,000 ft ~40,000 ft Winds

WSSL

Details ICAO WSSL (XSP)
Name Seletar
Region Singapore
Timezone Asia/Singapore (UTC+8.0)
Stats Elevation 36 ft / 11 m (AMSL)
Location 1.416427° 103.867299°
Runways 1
Magnetic Variation 0.218° E

METAR

WSSL 131800Z 00000KT 9999 FEW025 BKN300 25/23 Q1011 RMK 1430Z Q1012

Decode

TAF

Not found

Departure Runways

ID Width Length Bearing (true) Bearing (mag) Surface Threshold Offset Overrun Length
03 151 ft / 46 m 5,243 ft / 1,598 m 33.15° 32.93° Asphalt 0 ft / 0 m 197 ft / 60 m
21 151 ft / 46 m 5,243 ft / 1,598 m 213.15° 212.93° Asphalt 0 ft / 0 m 197 ft / 60 m

WMKN

Details ICAO WMKN (TGG)
Name Kuala Terengganu Sultan Mahmud
Region Malaysia (Peninsular Malaysia)
Timezone Asia/Kuala_Lumpur (UTC+8.0)
Stats Elevation 21 ft / 6 m (AMSL)
Location 5.382638° 103.103361°
Runways 1
Magnetic Variation 0.038° W

METAR

WMKN 131800Z VRB01KT 9999 FEW022 BKN300 24/23 Q1011

Decode

TAF

Not found

Destination Runways

ID Width Length Bearing (true) Bearing (mag) Surface Threshold Offset Overrun Length
04 150 ft / 46 m 6,580 ft / 2,006 m 44.37° 44.41° Asphalt 0 ft / 0 m 230 ft / 70 m
22 150 ft / 46 m 6,580 ft / 2,006 m 224.37° 224.41° Asphalt 0 ft / 0 m 218 ft / 66 m